sensor_id;sensor_type;location;lat;lon;timestamp;P1;durP1;ratioP1;P2;durP2;ratioP2
42384;SDS011;28042;43.986;22.860;2023-03-07T00:00:06;48.35;;;28.77;;
42384;SDS011;28042;43.986;22.860;2023-03-07T00:02:32;43.70;;;27.95;;
42384;SDS011;28042;43.986;22.860;2023-03-07T00:04:58;46.28;;;28.58;;
42384;SDS011;28042;43.986;22.860;2023-03-07T00:07:23;44.92;;;28.25;;
42384;SDS011;28042;43.986;22.860;2023-03-07T00:09:48;52.58;;;31.50;;
42384;SDS011;28042;43.986;22.860;2023-03-07T00:12:14;41.22;;;26.95;;
42384;SDS011;28042;43.986;22.860;2023-03-07T00:14:39;39.55;;;25.60;;
42384;SDS011;28042;43.986;22.860;2023-03-07T00:17:05;38.22;;;25.70;;
42384;SDS011;28042;43.986;22.860;2023-03-07T00:19:30;35.22;;;21.58;;
42384;SDS011;28042;43.986;22.860;2023-03-07T00:21:56;39.55;;;24.80;;
42384;SDS011;28042;43.986;22.860;2023-03-07T00:24:21;30.58;;;16.58;;
42384;SDS011;28042;43.986;22.860;2023-03-07T00:26:47;25.38;;;16.63;;
42384;SDS011;28042;43.986;22.860;2023-03-07T00:29:12;25.73;;;15.98;;
42384;SDS011;28042;43.986;22.860;2023-03-07T00:31:38;24.10;;;15.30;;
42384;SDS011;28042;43.986;22.860;2023-03-07T00:34:03;23.83;;;14.25;;
42384;SDS011;28042;43.986;22.860;2023-03-07T00:36:29;22.67;;;14.95;;
42384;SDS011;28042;43.986;22.860;2023-03-07T00:38:55;24.63;;;15.63;;
42384;SDS011;28042;43.986;22.860;2023-03-07T00:43:51;26.58;;;15.05;;
42384;SDS011;28042;43.986;22.860;2023-03-07T00:46:18;24.25;;;14.40;;
42384;SDS011;28042;43.986;22.860;2023-03-07T00:51:11;25.75;;;14.75;;
42384;SDS011;28042;43.986;22.860;2023-03-07T00:53:39;30.10;;;16.00;;
42384;SDS011;28042;43.986;22.860;2023-03-07T00:56:06;22.52;;;14.65;;
42384;SDS011;28042;43.986;22.860;2023-03-07T00:58:36;21.40;;;14.98;;
42384;SDS011;28042;43.986;22.860;2023-03-07T01:01:02;25.30;;;16.13;;
42384;SDS011;28042;43.986;22.860;2023-03-07T01:03:29;23.13;;;15.07;;
42384;SDS011;28042;43.986;22.860;2023-03-07T01:05:56;25.90;;;15.83;;
42384;SDS011;28042;43.986;22.860;2023-03-07T01:08:22;25.38;;;15.73;;
42384;SDS011;28042;43.986;22.860;2023-03-07T01:10:48;27.25;;;16.80;;
42384;SDS011;28042;43.986;22.860;2023-03-07T01:13:14;28.15;;;15.75;;
42384;SDS011;28042;43.986;22.860;2023-03-07T01:15:41;31.60;;;19.13;;
42384;SDS011;28042;43.986;22.860;2023-03-07T01:18:07;32.55;;;20.50;;
42384;SDS011;28042;43.986;22.860;2023-03-07T01:20:35;33.92;;;19.85;;
42384;SDS011;28042;43.986;22.860;2023-03-07T01:23:02;37.50;;;22.70;;
42384;SDS011;28042;43.986;22.860;2023-03-07T01:25:27;33.88;;;21.02;;
42384;SDS011;28042;43.986;22.860;2023-03-07T01:27:54;30.42;;;20.25;;
42384;SDS011;28042;43.986;22.860;2023-03-07T01:30:20;31.85;;;19.88;;
42384;SDS011;28042;43.986;22.860;2023-03-07T01:32:47;36.13;;;20.08;;
42384;SDS011;28042;43.986;22.860;2023-03-07T01:35:18;31.42;;;21.80;;
42384;SDS011;28042;43.986;22.860;2023-03-07T01:37:43;36.25;;;21.48;;
42384;SDS011;28042;43.986;22.860;2023-03-07T01:40:11;31.98;;;22.60;;
42384;SDS011;28042;43.986;22.860;2023-03-07T01:42:37;33.40;;;21.85;;
42384;SDS011;28042;43.986;22.860;2023-03-07T01:47:51;37.10;;;23.15;;
42384;SDS011;28042;43.986;22.860;2023-03-07T01:50:16;41.45;;;23.40;;
42384;SDS011;28042;43.986;22.860;2023-03-07T01:52:50;35.78;;;22.83;;
42384;SDS011;28042;43.986;22.860;2023-03-07T01:55:19;34.55;;;24.23;;
42384;SDS011;28042;43.986;22.860;2023-03-07T01:57:48;42.42;;;25.48;;
42384;SDS011;28042;43.986;22.860;2023-03-07T02:05:50;33.25;;;22.13;;
42384;SDS011;28042;43.986;22.860;2023-03-07T02:08:20;39.92;;;25.40;;
42384;SDS011;28042;43.986;22.860;2023-03-07T02:10:48;42.15;;;26.67;;
42384;SDS011;28042;43.986;22.860;2023-03-07T02:13:13;39.20;;;25.90;;
42384;SDS011;28042;43.986;22.860;2023-03-07T02:15:39;37.20;;;24.42;;
42384;SDS011;28042;43.986;22.860;2023-03-07T02:18:05;38.03;;;23.38;;
42384;SDS011;28042;43.986;22.860;2023-03-07T02:23:17;32.30;;;21.27;;
42384;SDS011;28042;43.986;22.860;2023-03-07T02:26:03;35.92;;;20.80;;
42384;SDS011;28042;43.986;22.860;2023-03-07T02:28:35;35.92;;;20.77;;
42384;SDS011;28042;43.986;22.860;2023-03-07T02:31:02;27.58;;;18.10;;
42384;SDS011;28042;43.986;22.860;2023-03-07T02:33:30;25.73;;;16.90;;
42384;SDS011;28042;43.986;22.860;2023-03-07T02:35:59;27.27;;;15.85;;
42384;SDS011;28042;43.986;22.860;2023-03-07T02:38:29;24.70;;;15.07;;
42384;SDS011;28042;43.986;22.860;2023-03-07T02:41:00;26.08;;;15.60;;
42384;SDS011;28042;43.986;22.860;2023-03-07T02:43:27;27.25;;;17.10;;
42384;SDS011;28042;43.986;22.860;2023-03-07T02:45:53;27.23;;;16.23;;
42384;SDS011;28042;43.986;22.860;2023-03-07T02:48:19;29.90;;;17.60;;
42384;SDS011;28042;43.986;22.860;2023-03-07T02:50:46;30.45;;;17.40;;
42384;SDS011;28042;43.986;22.860;2023-03-07T02:53:12;33.97;;;17.95;;
42384;SDS011;28042;43.986;22.860;2023-03-07T02:55:38;28.77;;;17.85;;
42384;SDS011;28042;43.986;22.860;2023-03-07T02:58:03;30.67;;;18.48;;
42384;SDS011;28042;43.986;22.860;2023-03-07T03:00:28;28.08;;;17.80;;
42384;SDS011;28042;43.986;22.860;2023-03-07T03:02:54;31.98;;;18.77;;
42384;SDS011;28042;43.986;22.860;2023-03-07T03:05:20;32.10;;;19.10;;
42384;SDS011;28042;43.986;22.860;2023-03-07T03:07:45;27.98;;;19.02;;
42384;SDS011;28042;43.986;22.860;2023-03-07T03:10:10;30.55;;;19.17;;
42384;SDS011;28042;43.986;22.860;2023-03-07T03:12:36;30.30;;;18.27;;
42384;SDS011;28042;43.986;22.860;2023-03-07T03:15:01;34.05;;;18.08;;
42384;SDS011;28042;43.986;22.860;2023-03-07T03:17:27;32.38;;;19.45;;
42384;SDS011;28042;43.986;22.860;2023-03-07T03:19:53;30.20;;;19.08;;
42384;SDS011;28042;43.986;22.860;2023-03-07T03:22:18;31.80;;;19.65;;
42384;SDS011;28042;43.986;22.860;2023-03-07T03:24:44;29.17;;;18.33;;
42384;SDS011;28042;43.986;22.860;2023-03-07T03:27:10;30.45;;;18.27;;
42384;SDS011;28042;43.986;22.860;2023-03-07T03:29:35;33.28;;;18.70;;
42384;SDS011;28042;43.986;22.860;2023-03-07T03:32:01;28.48;;;18.45;;
42384;SDS011;28042;43.986;22.860;2023-03-07T03:34:26;32.75;;;19.90;;
42384;SDS011;28042;43.986;22.860;2023-03-07T03:36:52;33.22;;;19.52;;
42384;SDS011;28042;43.986;22.860;2023-03-07T03:39:18;31.40;;;19.35;;
42384;SDS011;28042;43.986;22.860;2023-03-07T03:41:44;29.90;;;19.70;;
42384;SDS011;28042;43.986;22.860;2023-03-07T03:44:09;33.13;;;19.27;;
42384;SDS011;28042;43.986;22.860;2023-03-07T03:46:35;34.22;;;19.83;;
42384;SDS011;28042;43.986;22.860;2023-03-07T03:49:00;30.63;;;18.42;;
42384;SDS011;28042;43.986;22.860;2023-03-07T03:51:26;36.97;;;19.70;;
42384;SDS011;28042;43.986;22.860;2023-03-07T03:53:52;30.70;;;17.38;;
42384;SDS011;28042;43.986;22.860;2023-03-07T03:56:18;28.55;;;17.48;;
42384;SDS011;28042;43.986;22.860;2023-03-07T03:58:46;32.47;;;19.25;;
42384;SDS011;28042;43.986;22.860;2023-03-07T04:01:13;28.77;;;17.10;;
42384;SDS011;28042;43.986;22.860;2023-03-07T04:03:42;31.25;;;17.08;;
42384;SDS011;28042;43.986;22.860;2023-03-07T04:06:13;25.00;;;15.20;;
42384;SDS011;28042;43.986;22.860;2023-03-07T04:08:42;32.28;;;18.48;;
42384;SDS011;28042;43.986;22.860;2023-03-07T04:11:09;54.97;;;31.73;;
42384;SDS011;28042;43.986;22.860;2023-03-07T04:13:35;31.08;;;18.38;;
42384;SDS011;28042;43.986;22.860;2023-03-07T04:16:01;42.53;;;22.67;;
42384;SDS011;28042;43.986;22.860;2023-03-07T04:18:27;29.80;;;19.35;;
42384;SDS011;28042;43.986;22.860;2023-03-07T04:20:52;39.75;;;24.88;;
42384;SDS011;28042;43.986;22.860;2023-03-07T04:23:19;41.58;;;27.98;;
42384;SDS011;28042;43.986;22.860;2023-03-07T04:25:47;39.70;;;25.42;;
42384;SDS011;28042;43.986;22.860;2023-03-07T04:28:19;44.55;;;29.25;;
42384;SDS011;28042;43.986;22.860;2023-03-07T04:30:46;38.88;;;24.50;;
42384;SDS011;28042;43.986;22.860;2023-03-07T04:35:39;38.70;;;23.58;;
42384;SDS011;28042;43.986;22.860;2023-03-07T04:38:04;47.78;;;27.40;;
42384;SDS011;28042;43.986;22.860;2023-03-07T04:40:31;49.22;;;29.27;;
42384;SDS011;28042;43.986;22.860;2023-03-07T04:42:56;55.30;;;30.33;;
42384;SDS011;28042;43.986;22.860;2023-03-07T04:45:22;40.55;;;22.38;;
42384;SDS011;28042;43.986;22.860;2023-03-07T04:47:47;33.22;;;19.50;;
42384;SDS011;28042;43.986;22.860;2023-03-07T04:50:13;29.10;;;17.98;;
42384;SDS011;28042;43.986;22.860;2023-03-07T04:52:38;33.03;;;19.23;;
42384;SDS011;28042;43.986;22.860;2023-03-07T04:55:04;42.00;;;24.70;;
42384;SDS011;28042;43.986;22.860;2023-03-07T04:57:29;37.45;;;24.63;;
42384;SDS011;28042;43.986;22.860;2023-03-07T04:59:55;37.20;;;23.67;;
42384;SDS011;28042;43.986;22.860;2023-03-07T05:02:20;34.90;;;21.27;;
42384;SDS011;28042;43.986;22.860;2023-03-07T05:04:46;30.98;;;18.48;;
42384;SDS011;28042;43.986;22.860;2023-03-07T05:07:11;32.13;;;18.17;;
42384;SDS011;28042;43.986;22.860;2023-03-07T05:09:37;35.90;;;18.55;;
42384;SDS011;28042;43.986;22.860;2023-03-07T05:12:02;29.35;;;18.83;;
42384;SDS011;28042;43.986;22.860;2023-03-07T05:14:28;34.58;;;18.55;;
42384;SDS011;28042;43.986;22.860;2023-03-07T05:16:54;44.45;;;26.23;;
42384;SDS011;28042;43.986;22.860;2023-03-07T05:19:19;68.90;;;38.25;;
42384;SDS011;28042;43.986;22.860;2023-03-07T05:21:44;48.25;;;29.48;;
42384;SDS011;28042;43.986;22.860;2023-03-07T05:24:11;74.15;;;43.05;;
42384;SDS011;28042;43.986;22.860;2023-03-07T05:26:37;78.38;;;43.75;;
42384;SDS011;28042;43.986;22.860;2023-03-07T05:29:02;48.65;;;26.55;;
42384;SDS011;28042;43.986;22.860;2023-03-07T05:31:28;36.95;;;21.75;;
42384;SDS011;28042;43.986;22.860;2023-03-07T05:33:54;36.55;;;19.75;;
42384;SDS011;28042;43.986;22.860;2023-03-07T05:36:19;33.60;;;19.65;;
42384;SDS011;28042;43.986;22.860;2023-03-07T05:38:45;38.40;;;20.58;;
42384;SDS011;28042;43.986;22.860;2023-03-07T05:41:10;39.72;;;21.98;;
42384;SDS011;28042;43.986;22.860;2023-03-07T05:43:36;34.90;;;22.40;;
42384;SDS011;28042;43.986;22.860;2023-03-07T05:46:02;42.40;;;23.95;;
42384;SDS011;28042;43.986;22.860;2023-03-07T05:48:28;35.20;;;22.75;;
42384;SDS011;28042;43.986;22.860;2023-03-07T05:50:53;29.60;;;18.85;;
42384;SDS011;28042;43.986;22.860;2023-03-07T05:53:19;34.80;;;20.02;;
42384;SDS011;28042;43.986;22.860;2023-03-07T05:55:44;29.33;;;17.10;;
42384;SDS011;28042;43.986;22.860;2023-03-07T05:58:10;27.23;;;16.27;;
42384;SDS011;28042;43.986;22.860;2023-03-07T06:00:35;26.80;;;16.30;;
42384;SDS011;28042;43.986;22.860;2023-03-07T06:03:01;30.92;;;17.23;;
42384;SDS011;28042;43.986;22.860;2023-03-07T06:05:27;24.25;;;16.10;;
42384;SDS011;28042;43.986;22.860;2023-03-07T06:07:52;29.67;;;17.20;;
42384;SDS011;28042;43.986;22.860;2023-03-07T06:10:18;32.00;;;17.08;;
42384;SDS011;28042;43.986;22.860;2023-03-07T06:12:48;30.63;;;17.60;;
42384;SDS011;28042;43.986;22.860;2023-03-07T06:15:14;28.92;;;16.65;;
42384;SDS011;28042;43.986;22.860;2023-03-07T06:17:40;23.52;;;15.48;;
42384;SDS011;28042;43.986;22.860;2023-03-07T06:20:05;27.70;;;17.23;;
42384;SDS011;28042;43.986;22.860;2023-03-07T06:22:31;36.35;;;19.02;;
42384;SDS011;28042;43.986;22.860;2023-03-07T06:24:58;29.77;;;17.73;;
42384;SDS011;28042;43.986;22.860;2023-03-07T06:27:24;32.42;;;16.75;;
42384;SDS011;28042;43.986;22.860;2023-03-07T06:29:49;30.77;;;16.88;;
42384;SDS011;28042;43.986;22.860;2023-03-07T06:32:15;28.48;;;15.88;;
42384;SDS011;28042;43.986;22.860;2023-03-07T06:34:40;27.15;;;16.35;;
42384;SDS011;28042;43.986;22.860;2023-03-07T06:37:06;33.58;;;16.50;;
42384;SDS011;28042;43.986;22.860;2023-03-07T06:39:31;28.80;;;16.35;;
42384;SDS011;28042;43.986;22.860;2023-03-07T06:41:56;26.85;;;16.48;;
42384;SDS011;28042;43.986;22.860;2023-03-07T06:44:22;25.55;;;15.40;;
42384;SDS011;28042;43.986;22.860;2023-03-07T06:46:48;24.98;;;16.65;;
42384;SDS011;28042;43.986;22.860;2023-03-07T06:49:13;32.22;;;18.00;;
42384;SDS011;28042;43.986;22.860;2023-03-07T06:51:39;27.13;;;15.10;;
42384;SDS011;28042;43.986;22.860;2023-03-07T06:54:04;26.08;;;15.50;;
42384;SDS011;28042;43.986;22.860;2023-03-07T06:56:31;25.20;;;15.38;;
42384;SDS011;28042;43.986;22.860;2023-03-07T06:58:59;25.60;;;15.10;;
42384;SDS011;28042;43.986;22.860;2023-03-07T07:01:25;24.02;;;14.52;;
42384;SDS011;28042;43.986;22.860;2023-03-07T07:03:50;27.73;;;15.60;;
42384;SDS011;28042;43.986;22.860;2023-03-07T07:06:16;26.17;;;15.07;;
42384;SDS011;28042;43.986;22.860;2023-03-07T07:08:41;24.60;;;14.32;;
42384;SDS011;28042;43.986;22.860;2023-03-07T07:11:07;26.80;;;17.58;;
42384;SDS011;28042;43.986;22.860;2023-03-07T07:13:32;29.10;;;18.55;;
42384;SDS011;28042;43.986;22.860;2023-03-07T07:16:02;32.42;;;19.40;;
42384;SDS011;28042;43.986;22.860;2023-03-07T07:18:32;32.90;;;19.15;;
42384;SDS011;28042;43.986;22.860;2023-03-07T07:20:58;31.83;;;18.98;;
42384;SDS011;28042;43.986;22.860;2023-03-07T07:23:23;41.50;;;19.70;;
42384;SDS011;28042;43.986;22.860;2023-03-07T07:25:51;31.67;;;16.65;;
42384;SDS011;28042;43.986;22.860;2023-03-07T07:28:17;24.73;;;16.45;;
42384;SDS011;28042;43.986;22.860;2023-03-07T07:30:42;23.70;;;15.80;;
42384;SDS011;28042;43.986;22.860;2023-03-07T07:33:07;28.13;;;16.15;;
42384;SDS011;28042;43.986;22.860;2023-03-07T07:35:33;28.88;;;15.35;;
42384;SDS011;28042;43.986;22.860;2023-03-07T07:37:58;28.08;;;16.42;;
42384;SDS011;28042;43.986;22.860;2023-03-07T07:40:24;29.20;;;17.95;;
42384;SDS011;28042;43.986;22.860;2023-03-07T07:42:50;27.55;;;16.85;;
42384;SDS011;28042;43.986;22.860;2023-03-07T07:45:22;29.95;;;17.27;;
42384;SDS011;28042;43.986;22.860;2023-03-07T07:47:48;26.50;;;17.25;;
42384;SDS011;28042;43.986;22.860;2023-03-07T07:50:19;27.50;;;17.10;;
42384;SDS011;28042;43.986;22.860;2023-03-07T07:52:46;31.77;;;18.75;;
42384;SDS011;28042;43.986;22.860;2023-03-07T07:55:12;33.17;;;19.70;;
42384;SDS011;28042;43.986;22.860;2023-03-07T07:57:38;30.80;;;19.00;;
42384;SDS011;28042;43.986;22.860;2023-03-07T08:00:05;34.97;;;19.88;;
42384;SDS011;28042;43.986;22.860;2023-03-07T08:02:33;36.15;;;20.13;;
42384;SDS011;28042;43.986;22.860;2023-03-07T08:04:59;36.75;;;23.48;;
42384;SDS011;28042;43.986;22.860;2023-03-07T08:07:24;32.72;;;18.85;;
42384;SDS011;28042;43.986;22.860;2023-03-07T08:09:50;33.58;;;20.13;;
42384;SDS011;28042;43.986;22.860;2023-03-07T08:12:21;36.95;;;21.73;;
42384;SDS011;28042;43.986;22.860;2023-03-07T08:14:47;35.63;;;19.50;;
42384;SDS011;28042;43.986;22.860;2023-03-07T08:17:12;46.63;;;29.05;;
42384;SDS011;28042;43.986;22.860;2023-03-07T08:19:38;30.70;;;20.42;;
42384;SDS011;28042;43.986;22.860;2023-03-07T08:22:03;39.72;;;21.60;;
42384;SDS011;28042;43.986;22.860;2023-03-07T08:24:29;31.65;;;21.52;;
42384;SDS011;28042;43.986;22.860;2023-03-07T08:26:59;27.98;;;19.80;;
42384;SDS011;28042;43.986;22.860;2023-03-07T08:29:24;33.58;;;22.20;;
42384;SDS011;28042;43.986;22.860;2023-03-07T08:31:50;35.10;;;20.40;;
42384;SDS011;28042;43.986;22.860;2023-03-07T08:34:17;29.17;;;18.40;;
42384;SDS011;28042;43.986;22.860;2023-03-07T08:36:43;28.27;;;18.50;;
42384;SDS011;28042;43.986;22.860;2023-03-07T08:39:09;28.90;;;18.63;;
42384;SDS011;28042;43.986;22.860;2023-03-07T08:41:36;29.80;;;16.97;;
42384;SDS011;28042;43.986;22.860;2023-03-07T08:44:02;27.75;;;16.85;;
42384;SDS011;28042;43.986;22.860;2023-03-07T08:46:27;28.42;;;17.80;;
42384;SDS011;28042;43.986;22.860;2023-03-07T08:48:53;28.45;;;17.02;;
42384;SDS011;28042;43.986;22.860;2023-03-07T08:51:18;26.48;;;17.40;;
42384;SDS011;28042;43.986;22.860;2023-03-07T08:53:44;24.60;;;17.13;;
42384;SDS011;28042;43.986;22.860;2023-03-07T08:56:11;32.15;;;17.83;;
42384;SDS011;28042;43.986;22.860;2023-03-07T08:58:39;30.92;;;19.05;;
42384;SDS011;28042;43.986;22.860;2023-03-07T09:01:05;24.48;;;16.83;;
42384;SDS011;28042;43.986;22.860;2023-03-07T09:03:32;25.52;;;16.95;;
42384;SDS011;28042;43.986;22.860;2023-03-07T09:05:58;26.33;;;17.75;;
42384;SDS011;28042;43.986;22.860;2023-03-07T09:08:24;23.63;;;15.60;;
42384;SDS011;28042;43.986;22.860;2023-03-07T09:10:50;23.23;;;15.80;;
42384;SDS011;28042;43.986;22.860;2023-03-07T09:13:15;26.40;;;17.42;;
42384;SDS011;28042;43.986;22.860;2023-03-07T09:15:42;25.13;;;16.65;;
42384;SDS011;28042;43.986;22.860;2023-03-07T09:18:08;26.08;;;16.40;;
42384;SDS011;28042;43.986;22.860;2023-03-07T09:20:34;30.40;;;18.63;;
42384;SDS011;28042;43.986;22.860;2023-03-07T09:23:01;27.00;;;16.60;;
42384;SDS011;28042;43.986;22.860;2023-03-07T09:25:27;26.10;;;16.00;;
42384;SDS011;28042;43.986;22.860;2023-03-07T09:27:52;29.02;;;16.83;;
42384;SDS011;28042;43.986;22.860;2023-03-07T09:30:18;31.10;;;18.08;;
42384;SDS011;28042;43.986;22.860;2023-03-07T09:32:44;24.48;;;16.88;;
42384;SDS011;28042;43.986;22.860;2023-03-07T09:35:10;24.33;;;16.17;;
42384;SDS011;28042;43.986;22.860;2023-03-07T09:37:36;23.73;;;15.65;;
42384;SDS011;28042;43.986;22.860;2023-03-07T09:40:05;47.53;;;25.00;;
42384;SDS011;28042;43.986;22.860;2023-03-07T09:50:55;25.83;;;15.88;;
42384;SDS011;28042;43.986;22.860;2023-03-07T09:56:00;24.50;;;15.38;;
42384;SDS011;28042;43.986;22.860;2023-03-07T09:58:29;22.00;;;15.98;;
42384;SDS011;28042;43.986;22.860;2023-03-07T10:00:55;27.67;;;16.80;;
42384;SDS011;28042;43.986;22.860;2023-03-07T10:06:23;25.83;;;16.38;;
42384;SDS011;28042;43.986;22.860;2023-03-07T10:08:50;28.58;;;17.67;;
42384;SDS011;28042;43.986;22.860;2023-03-07T10:16:42;25.30;;;16.67;;
42384;SDS011;28042;43.986;22.860;2023-03-07T10:21:51;26.63;;;16.15;;
42384;SDS011;28042;43.986;22.860;2023-03-07T10:27:22;22.15;;;15.43;;
42384;SDS011;28042;43.986;22.860;2023-03-07T10:29:52;28.42;;;18.27;;
42384;SDS011;28042;43.986;22.860;2023-03-07T10:34:52;28.10;;;15.65;;
42384;SDS011;28042;43.986;22.860;2023-03-07T10:37:50;27.50;;;15.00;;
42384;SDS011;28042;43.986;22.860;2023-03-07T10:42:49;21.02;;;14.32;;
42384;SDS011;28042;43.986;22.860;2023-03-07T10:45:15;26.27;;;14.27;;
42384;SDS011;28042;43.986;22.860;2023-03-07T10:47:41;23.55;;;13.35;;
42384;SDS011;28042;43.986;22.860;2023-03-07T10:52:59;20.15;;;13.18;;
42384;SDS011;28042;43.986;22.860;2023-03-07T11:00:59;19.80;;;13.95;;
42384;SDS011;28042;43.986;22.860;2023-03-07T11:09:07;21.52;;;14.10;;
42384;SDS011;28042;43.986;22.860;2023-03-07T11:11:45;23.77;;;14.57;;
42384;SDS011;28042;43.986;22.860;2023-03-07T11:14:19;23.50;;;12.98;;
42384;SDS011;28042;43.986;22.860;2023-03-07T11:16:51;17.73;;;12.15;;
42384;SDS011;28042;43.986;22.860;2023-03-07T11:19:30;21.40;;;12.57;;
42384;SDS011;28042;43.986;22.860;2023-03-07T11:22:14;19.48;;;12.13;;
42384;SDS011;28042;43.986;22.860;2023-03-07T11:24:47;17.05;;;11.55;;
42384;SDS011;28042;43.986;22.860;2023-03-07T11:30:25;20.27;;;10.80;;
42384;SDS011;28042;43.986;22.860;2023-03-07T11:41:23;12.23;;;8.88;;
42384;SDS011;28042;43.986;22.860;2023-03-07T11:43:59;19.50;;;9.95;;
42384;SDS011;28042;43.986;22.860;2023-03-07T11:52:09;12.82;;;8.02;;
42384;SDS011;28042;43.986;22.860;2023-03-07T11:57:45;18.52;;;9.05;;
42384;SDS011;28042;43.986;22.860;2023-03-07T12:11:13;10.77;;;6.60;;
42384;SDS011;28042;43.986;22.860;2023-03-07T12:19:58;10.32;;;4.93;;
42384;SDS011;28042;43.986;22.860;2023-03-07T12:25:25;14.35;;;5.05;;
42384;SDS011;28042;43.986;22.860;2023-03-07T12:28:12;50.88;;;8.32;;
42384;SDS011;28042;43.986;22.860;2023-03-07T12:33:43;6.40;;;2.53;;
42384;SDS011;28042;43.986;22.860;2023-03-07T12:38:50;4.22;;;2.40;;
42384;SDS011;28042;43.986;22.860;2023-03-07T12:43:51;9.73;;;2.80;;
42384;SDS011;28042;43.986;22.860;2023-03-07T12:46:23;4.43;;;2.17;;
42384;SDS011;28042;43.986;22.860;2023-03-07T12:51:38;34.50;;;5.60;;
42384;SDS011;28042;43.986;22.860;2023-03-07T12:59:11;4.72;;;2.30;;
42384;SDS011;28042;43.986;22.860;2023-03-07T13:04:36;16.02;;;2.28;;
42384;SDS011;28042;43.986;22.860;2023-03-07T13:07:10;8.82;;;2.38;;
42384;SDS011;28042;43.986;22.860;2023-03-07T13:09:41;8.65;;;2.58;;
42384;SDS011;28042;43.986;22.860;2023-03-07T13:14:38;9.88;;;2.63;;
42384;SDS011;28042;43.986;22.860;2023-03-07T13:17:11;16.92;;;3.28;;
42384;SDS011;28042;43.986;22.860;2023-03-07T13:24:54;6.88;;;2.45;;
42384;SDS011;28042;43.986;22.860;2023-03-07T13:27:22;4.18;;;2.40;;
42384;SDS011;28042;43.986;22.860;2023-03-07T13:30:14;28.13;;;4.38;;
42384;SDS011;28042;43.986;22.860;2023-03-07T13:40:58;9.00;;;3.65;;
42384;SDS011;28042;43.986;22.860;2023-03-07T14:01:59;7.13;;;3.03;;
42384;SDS011;28042;43.986;22.860;2023-03-07T14:04:35;66.88;;;9.43;;
42384;SDS011;28042;43.986;22.860;2023-03-07T14:07:36;10.65;;;3.47;;
42384;SDS011;28042;43.986;22.860;2023-03-07T14:10:15;10.55;;;4.22;;
42384;SDS011;28042;43.986;22.860;2023-03-07T14:26:16;21.95;;;5.22;;
42384;SDS011;28042;43.986;22.860;2023-03-07T14:28:47;11.82;;;4.65;;
42384;SDS011;28042;43.986;22.860;2023-03-07T14:31:23;10.43;;;3.17;;
42384;SDS011;28042;43.986;22.860;2023-03-07T14:33:51;6.78;;;4.30;;
42384;SDS011;28042;43.986;22.860;2023-03-07T14:36:25;9.32;;;4.47;;
42384;SDS011;28042;43.986;22.860;2023-03-07T14:38:56;17.08;;;4.60;;
42384;SDS011;28042;43.986;22.860;2023-03-07T14:47:13;19.75;;;8.38;;
42384;SDS011;28042;43.986;22.860;2023-03-07T14:52:17;24.27;;;7.88;;
42384;SDS011;28042;43.986;22.860;2023-03-07T14:54:45;17.40;;;6.25;;
42384;SDS011;28042;43.986;22.860;2023-03-07T14:57:19;18.45;;;7.85;;
42384;SDS011;28042;43.986;22.860;2023-03-07T15:02:53;44.60;;;12.38;;
42384;SDS011;28042;43.986;22.860;2023-03-07T15:05:31;44.47;;;13.43;;
42384;SDS011;28042;43.986;22.860;2023-03-07T15:13:04;13.60;;;7.60;;
42384;SDS011;28042;43.986;22.860;2023-03-07T15:15:43;22.08;;;7.15;;
42384;SDS011;28042;43.986;22.860;2023-03-07T15:20:50;14.70;;;7.57;;
42384;SDS011;28042;43.986;22.860;2023-03-07T15:23:19;24.52;;;12.18;;
42384;SDS011;28042;43.986;22.860;2023-03-07T15:25:52;19.40;;;8.48;;
42384;SDS011;28042;43.986;22.860;2023-03-07T15:28:33;16.20;;;9.13;;
42384;SDS011;28042;43.986;22.860;2023-03-07T15:31:01;18.50;;;10.68;;
42384;SDS011;28042;43.986;22.860;2023-03-07T15:33:28;20.58;;;10.30;;
42384;SDS011;28042;43.986;22.860;2023-03-07T15:41:00;17.75;;;10.23;;
42384;SDS011;28042;43.986;22.860;2023-03-07T15:43:26;25.73;;;12.45;;
42384;SDS011;28042;43.986;22.860;2023-03-07T15:48:47;25.17;;;14.90;;
42384;SDS011;28042;43.986;22.860;2023-03-07T15:51:16;21.50;;;11.48;;
42384;SDS011;28042;43.986;22.860;2023-03-07T15:53:44;17.85;;;10.57;;
42384;SDS011;28042;43.986;22.860;2023-03-07T15:56:26;29.98;;;11.90;;
42384;SDS011;28042;43.986;22.860;2023-03-07T15:59:05;24.23;;;15.15;;
42384;SDS011;28042;43.986;22.860;2023-03-07T16:01:41;30.52;;;17.40;;
42384;SDS011;28042;43.986;22.860;2023-03-07T16:04:24;25.35;;;15.05;;
42384;SDS011;28042;43.986;22.860;2023-03-07T16:06:55;25.15;;;15.57;;
42384;SDS011;28042;43.986;22.860;2023-03-07T16:09:21;19.92;;;11.55;;
42384;SDS011;28042;43.986;22.860;2023-03-07T16:11:46;21.00;;;12.63;;
42384;SDS011;28042;43.986;22.860;2023-03-07T16:14:22;22.42;;;13.52;;
42384;SDS011;28042;43.986;22.860;2023-03-07T16:19:15;30.55;;;15.02;;
42384;SDS011;28042;43.986;22.860;2023-03-07T16:21:41;24.35;;;14.15;;
42384;SDS011;28042;43.986;22.860;2023-03-07T16:24:06;25.63;;;15.30;;
42384;SDS011;28042;43.986;22.860;2023-03-07T16:26:32;26.88;;;16.95;;
42384;SDS011;28042;43.986;22.860;2023-03-07T16:28:58;22.75;;;15.05;;
42384;SDS011;28042;43.986;22.860;2023-03-07T16:31:24;23.87;;;15.03;;
42384;SDS011;28042;43.986;22.860;2023-03-07T16:33:50;29.83;;;17.13;;
42384;SDS011;28042;43.986;22.860;2023-03-07T16:36:16;37.30;;;19.60;;
42384;SDS011;28042;43.986;22.860;2023-03-07T16:38:41;26.65;;;16.33;;
42384;SDS011;28042;43.986;22.860;2023-03-07T16:41:17;25.17;;;15.60;;
42384;SDS011;28042;43.986;22.860;2023-03-07T16:43:45;23.65;;;14.30;;
42384;SDS011;28042;43.986;22.860;2023-03-07T16:46:17;25.58;;;14.18;;
42384;SDS011;28042;43.986;22.860;2023-03-07T16:48:43;29.48;;;15.18;;
42384;SDS011;28042;43.986;22.860;2023-03-07T16:51:19;23.50;;;14.13;;
42384;SDS011;28042;43.986;22.860;2023-03-07T16:53:46;22.48;;;13.50;;
42384;SDS011;28042;43.986;22.860;2023-03-07T16:56:15;21.10;;;13.13;;
42384;SDS011;28042;43.986;22.860;2023-03-07T16:58:53;29.90;;;18.33;;
42384;SDS011;28042;43.986;22.860;2023-03-07T17:01:19;36.30;;;21.98;;
42384;SDS011;28042;43.986;22.860;2023-03-07T17:03:45;45.47;;;29.17;;
42384;SDS011;28042;43.986;22.860;2023-03-07T17:06:14;46.03;;;29.58;;
42384;SDS011;28042;43.986;22.860;2023-03-07T17:08:41;46.92;;;31.17;;
42384;SDS011;28042;43.986;22.860;2023-03-07T17:11:23;44.15;;;29.42;;
42384;SDS011;28042;43.986;22.860;2023-03-07T17:13:54;58.83;;;34.88;;
42384;SDS011;28042;43.986;22.860;2023-03-07T17:16:23;54.67;;;23.42;;
42384;SDS011;28042;43.986;22.860;2023-03-07T17:18:51;52.78;;;21.42;;
42384;SDS011;28042;43.986;22.860;2023-03-07T17:21:18;41.78;;;24.02;;
42384;SDS011;28042;43.986;22.860;2023-03-07T17:23:45;56.88;;;28.17;;
42384;SDS011;28042;43.986;22.860;2023-03-07T17:26:17;57.17;;;28.48;;
42384;SDS011;28042;43.986;22.860;2023-03-07T17:28:50;53.67;;;32.53;;
42384;SDS011;28042;43.986;22.860;2023-03-07T17:31:17;65.90;;;41.15;;
42384;SDS011;28042;43.986;22.860;2023-03-07T17:33:42;67.13;;;40.97;;